Sacramento, California
Traffic Map
Current Weather Conditions
Sacramento, California
Clear
Clear
66°
Feels Like: 66°
Wind Chill: 66° Ceiling: Unl
Heat Index: 66° Visibility: 10mi
Dew Point: 59° Wind: 6mph
Humidity: 78% Direction: 360° (N)
Pressure: 30.08in Gusts: 0mph
Raw Report DataKSAC 222253Z 36005KT 10SM CLR 19/15 A3008 RMK AO2 SLP187 T01890150
Traffic Incident Summary
Active as of:
Severity:
Category:
InformationThere was an issue retrieving the traffic information for this location. Please try a different location or try again shortly.
Advertisements